Selected Arizona METAR Reports


Metar stations are listed by distance from this station - near to far. The 'official' reporting station for the Greater Phoenix area is KPHX - Phoenix/Sky Harbor.

KDVT - Phoenix/Deer Valley, Arizona, USA
Distance from station: NW 4mi, 7km
Updated: Fri 16 Apr 2021 1453 MST
Clear
Clear
 Wind from SSW
Wind: SSW 10 mph , 17 km/h
Temperature: 79°F , 26°C
Dew Point: 16°F , -9°C
Humidity: 9%
Barometer: 29.81 inHg , 1009.5 hPa
Clouds: Clear
Visibility: 10 miles , 16 km
2021/04/16 21:53 KDVT 162153Z 21009KT 10SM CLR 26/M09 A2981 RMK AO2 SLP078 T02611089
KSDL - Scottsdale, Arizona, USA
Distance from station: ESE 6mi, 9km
Updated: Fri 16 Apr 2021 1453 MST
Clear
Clear
 Wind from varies
Wind: varies 6 mph , 9 km/h
Temperature: 79°F , 26°C
Dew Point: 14°F , -10°C
Humidity: 8%
Barometer: 29.82 inHg , 1009.8 hPa
Clouds: Clear
Visibility: 10 miles , 16 km
2021/04/16 21:53 KSDL 162153Z VRB05KT 10SM CLR 26/M10 A2982 RMK AO2 SLP081 T02611100
 
KPHX - Phoenix/Sky Harbor, Arizona, USA
Distance from station: S 15mi, 24km
Updated: Fri 16 Apr 2021 1451 MST
Mostly cloudy
Mostly cloudy
 Wind from varies
Wind: varies 7 mph , 11 km/h
Temperature: 81°F , 27°C
Dew Point: 12°F , -11°C
Humidity: 7%
Barometer: 29.79 inHg , 1008.8 hPa
Clouds: Mostly cloudy
Visibility: 10 miles , 16 km
Cloud details: Few Clouds 20000 ft
Mostly cloudy 25000 ft
2021/04/16 21:51 KPHX 162151Z VRB06KT 10SM FEW200 BKN250 27/M11 A2979 RMK AO2 SLP073 T02721106
KGEU - Glendale, Arizona, USA
Distance from station: WSW 19mi, 30km
Updated: Fri 16 Apr 2021 1450 MST
Mostly cloudy
Mostly cloudy
 Wind from SW
Wind: SW 6 mph , 9 km/h
Temperature: 81°F , 27°C
Dew Point: 9°F , -13°C
Humidity: 6%
Barometer: 29.82 inHg , 1009.8 hPa
Clouds: Mostly cloudy
Visibility: 10 miles , 16 km
Cloud details: Mostly cloudy 19000 ft
Mostly cloudy 25000 ft
2021/04/16 21:50 KGEU 162150Z 22005KT 10SM BKN190 BKN250 27/M13 A2982
 
KFFZ - Mesa/Falcon Field, Arizona, USA
Distance from station: SE 21mi, 33km
Updated: Fri 16 Apr 2021 1454 MST
Clear
Clear
 Wind from WSW
Wind: WSW 8 mph , 13 km/h
Temperature: 79°F , 26°C
Dew Point: 12°F , -11°C
Humidity: 8%
Barometer: 29.81 inHg , 1009.5 hPa
Clouds: Clear
Visibility: 10 miles , 16 km
2021/04/16 21:54 KFFZ 162154Z 24007KT 10SM CLR 26/M11 A2981 RMK AO2 SLP074 T02611111
KLUF - Luke AFB/Glendale, Arizona, USA
Distance from station: WSW 23mi, 36km
Updated: Fri 16 Apr 2021 1500 MST
Mostly cloudy
Mostly cloudy
 Wind from varies
Wind: varies 7 mph , 11 km/h
Temperature: 82°F , 28°C
Dew Point: 25°F , -4°C
Humidity: 12%
Barometer: 29.87 inHg , 1011.5 hPa
Clouds: Mostly cloudy
Visibility: 7 miles , 11 km
Cloud details: Mostly cloudy 20000 ft
2021/04/16 22:00 KLUF 162200Z VRB06KT 7SM BKN200 28/M04 A2987 RMK SLPNO A02A WND DATA ESTMD ALSTG/SLP ESTMD 57010
 
KGYR - Goodyear Municipal, Arizona, USA
Distance from station: SW 26mi, 42km
Updated: Fri 16 Apr 2021 1447 MST
Partly cloudy
Partly cloudy
 Wind from SW
Wind: SW 9 mph , 15 km/h
Temperature: 81°F , 27°C
Dew Point: 18°F , -8°C
Humidity: 9%
Barometer: 29.81 inHg , 1009.5 hPa
Clouds: Partly cloudy
Visibility: 10 miles , 16 km
Cloud details: Few Clouds 14000 ft
Partly cloudy 20000 ft
2021/04/16 21:47 KGYR 162147Z 22008KT 10SM FEW140 SCT200 27/M08 A2981
KIWA - Chandler/Mesa, Arizona, USA
Distance from station: SE 32mi, 51km
Updated: Fri 16 Apr 2021 1459 MST
Well-developed dust/sand whirls, Mostly cloudy
Well-developed dust/sand whirls, Mostly cloudy
 Wind from W
Wind: W 6 mph , 9 km/h
Temperature: 79°F , 26°C
Dew Point: 14°F , -10°C
Humidity: 8%
Barometer: 29.82 inHg , 1009.8 hPa
Summary: Well-developed dust, Sand whirls
Clouds: Mostly cloudy
Visibility: 10 miles , 16 km
Cloud details: Mostly cloudy 20000 ft
2021/04/16 21:59 KIWA 162159Z 26005KT 10SM PO BKN200 26/M10 A2982
 
KBXK - Buckeye, Arizona, USA
Distance from station: WSW 42mi, 68km
Updated: Fri 16 Apr 2021 1515 MST

 Wind from varies
Wind: varies 6 mph , 9 km/h
Temperature: 81°F , 27°C
Dew Point: 10°F , -12°C
Humidity: 7%
Barometer: 29.81 inHg , 1009.5 hPa
Visibility: 10 miles , 16 km
2021/04/16 22:15 KBXK 162215Z AUTO VRB05KT 10SM 27/M12 A2981 RMK A01
KCGZ - Casa Grande, Arizona, USA
Distance from station: SSE 50mi, 81km
Updated: Fri 16 Apr 2021 1456 MST
Clear
Clear
 Wind from WSW
Wind: WSW 9 mph , 15 km/h
Temperature: 79°F , 26°C
Dew Point: 12°F , -11°C
Humidity: 8%
Barometer: 29.83 inHg , 1010.2 hPa
Clouds: Clear
Visibility: 10 miles , 16 km
2021/04/16 21:56 KCGZ 162156Z AUTO 24008KT 10SM CLR 26/M11 A2983 RMK AO2 SLP091 T02561106
 
KPAN - Payson, Arizona, USA
Distance from station: NE 57mi, 91km
Updated: Fri 16 Apr 2021 1515 MST
Clear
Clear
 Wind from W
Wind: W 15 mph , 24 km/h, Gust: 24 mph , 39 km/h
Temperature: 66°F , 19°C
Dew Point: 7°F , -14°C
Humidity: 9%
Barometer: 29.93 inHg , 1013.5 hPa
Clouds: Clear
Visibility: 10 miles , 16 km
2021/04/16 22:15 KPAN 162215Z AUTO 28013G21KT 240V310 10SM CLR 19/M14 A2993 RMK AO2
KGBN - Gila Bend (aaf), Arizona, USA
Distance from station: SW 68mi, 109km
Updated: Wed 04 Dec 2019 0855 MST
NOT Current
Mostly cloudy
Mostly cloudy
 Wind from calm
Wind: Calm
Temperature: 55°F , 13°C
Dew Point: 54°F , 12°C
Humidity: 94%
Barometer: 30.02 inHg , 1016.6 hPa
Clouds: Mostly cloudy
Visibility: 10 miles , 16 km
Cloud details: Mostly cloudy 10000 ft
Mostly cloudy 14000 ft
2019/12/04 15:55 KGBN 041555Z 00000KT 10SM BKN100 BKN140 13/12 A3002 RMK AO2A SLP162
 
KPRC - Prescott, Arizona, USA
Distance from station: NNW 73mi, 118km
Updated: Fri 16 Apr 2021 1453 MST
Partly cloudy
Partly cloudy
 Wind from SW
Wind: SW 14 mph , 22 km/h, Gust: 20 mph , 31 km/h
Temperature: 63°F , 17°C
Dew Point: 12°F , -11°C
Humidity: 14%
Barometer: 29.92 inHg , 1013.2 hPa
Clouds: Partly cloudy
Visibility: 10 miles , 16 km
Cloud details: Partly cloudy 11000 ft
2021/04/16 21:53 KPRC 162153Z 23012G17KT 10SM SCT110 17/M11 A2992 RMK AO2 SLP089 T01721106
KSEZ - Sedona, Arizona, USA
Distance from station: N 84mi, 135km
Updated: Fri 16 Apr 2021 1515 MST
Partly cloudy
Partly cloudy
 Wind from SSW
Wind: SSW 7 mph , 11 km/h, Gust: 21 mph , 33 km/h
Temperature: 68°F , 20°C
Dew Point: 12°F , -11°C
Humidity: 11%
Barometer: 29.91 inHg , 1012.9 hPa
Clouds: Partly cloudy
Visibility: 10 miles , 16 km
Cloud details: Partly cloudy 11000 ft
2021/04/16 22:15 KSEZ 162215Z AUTO 21006G18KT 10SM SCT110 20/M11 A2991 RMK AO2
 
KFLG - Flagstaff, Arizona, USA
Distance from station: N 105mi, 168km
Updated: Fri 16 Apr 2021 1457 MST
Partly cloudy
Partly cloudy
 Wind from WSW
Wind: WSW 10 mph , 17 km/h
Temperature: 54°F , 12°C
Dew Point: 12°F , -11°C
Humidity: 19%
Barometer: 29.97 inHg , 1014.9 hPa
Clouds: Partly cloudy
Visibility: 10 miles , 16 km
Cloud details: Partly cloudy 11000 ft
2021/04/16 21:57 KFLG 162157Z 24009KT 10SM SCT110 12/M11 A2997 RMK AO2 SLP110 T01171106
KRYN - Tucson/Ryan Field, Arizona, USA
Distance from station: SSE 114mi, 184km
Updated: Fri 16 Apr 2021 1445 MST
Clear
Clear
 Wind from NW
Wind: NW 16 mph , 26 km/h, Gust: 21 mph , 33 km/h
Temperature: 79°F , 26°C
Dew Point: 5°F , -15°C
Humidity: 6%
Barometer: 29.87 inHg , 1011.5 hPa
Clouds: Clear
Visibility: 10 miles , 16 km
2021/04/16 21:45 KRYN 162145Z 32014G18KT 10SM CLR 26/M15 A2987
 
KCMR - Williams Clark, Arizona, USA
Distance from station: N 115mi, 185km
Updated: Fri 16 Apr 2021 1515 MST
Few Clouds
Few Clouds
 Wind from N
Wind: N 0 mph , 0 km/h, Gust: 17 mph , 28 km/h
Temperature: 55°F , 13°C
Dew Point: 9°F , -13°C
Humidity: 15%
Barometer: 29.97 inHg , 1014.9 hPa
Clouds: Few Clouds
Visibility: 10 miles , 16 km
Cloud details: Few Clouds 10000 ft
2021/04/16 22:15 KCMR 162215Z AUTO 00000G15KT 10SM FEW100 13/M13 A2997 RMK AO2
KINW - Winslow, Arizona, USA
Distance from station: NE 121mi, 194km
Updated: Fri 16 Apr 2021 1456 MST
Clear
Clear
 Wind from NW
Wind: NW 7 mph , 11 km/h, Gust: 17 mph , 28 km/h
Temperature: 66°F , 19°C
Dew Point: 12°F , -11°C
Humidity: 12%
Barometer: 29.91 inHg , 1012.9 hPa
Clouds: Clear
Visibility: 10 miles , 16 km
2021/04/16 21:56 KINW 162156Z AUTO 32006G15KT 10SM CLR 19/M11 A2991 RMK AO2 SLP098 T01891106 TSNO
 
KTUS - Tucson, Arizona, USA
Distance from station: SSE 121mi, 195km
Updated: Fri 16 Apr 2021 1453 MST
Clear
Clear
 Wind from NW
Wind: NW 7 mph , 11 km/h, Gust: 18 mph , 30 km/h
Temperature: 77°F , 25°C
Dew Point: 9°F , -13°C
Humidity: 7%
Barometer: 29.87 inHg , 1011.5 hPa
Clouds: Clear
Visibility: 10 miles , 16 km
2021/04/16 21:53 KTUS 162153Z 32006G16KT 10SM CLR 25/M13 A2987 RMK AO2 SLP079 T02501128
KDMA - Davis AFB/Tucson, Arizona, USA
Distance from station: SE 122mi, 196km
Updated: Fri 16 Apr 2021 1458 MST
Partly cloudy
Partly cloudy
 Wind from NW
Wind: NW 14 mph , 22 km/h, Gust: 20 mph , 31 km/h
Temperature: 75°F , 24°C
Dew Point: 12°F , -11°C
Humidity: 9%
Barometer: 29.85 inHg , 1010.8 hPa
Clouds: Partly cloudy
Visibility: 10 miles , 16 km
Cloud details: Partly cloudy 13000 ft
2021/04/16 21:58 KDMA 162158Z AUTO 31012G17KT 10SM SCT130 24/M11 A2985 RMK AO2 SLP076 T02441106 CHINO RWY12 $
 
KSOW - Show Low Municipal, Arizona, USA
Distance from station: ENE 123mi, 198km
Updated: Fri 16 Apr 2021 1515 MST
Clear
Clear
 Wind from NW
Wind: NW 7 mph , 11 km/h
Temperature: 57°F , 14°C
Dew Point: 9°F , -13°C
Humidity: 14%
Barometer: 29.96 inHg , 1014.6 hPa
Clouds: Clear
2021/04/16 22:15 KSOW 162215Z AUTO 32006KT CLR 14/M13 A2996 RMK AO2
KSAD - Safford, Arizona, USA
Distance from station: ESE 148mi, 238km
Updated: Fri 16 Apr 2021 1451 MST
Clear
Clear
 Wind from NNW
Wind: NNW 7 mph , 11 km/h
Temperature: 73°F , 23°C
Dew Point: 12°F , -11°C
Humidity: 9%
Barometer: 29.83 inHg , 1010.2 hPa
Clouds: Clear
Visibility: 10 miles , 16 km
2021/04/16 21:51 KSAD 162151Z AUTO 34006KT 10SM CLR 23/M11 A2983 RMK AO2 SLP064 T02331111